METAR OBSERVATIONS
Looking Back 6 hours

  • KPBF 162253Z AUTO 01011KT 10SM CLR 18/03 A3028 RMK AO2 SLP253 T01830033 =
  • KPBF 162153Z AUTO 03013KT 10SM CLR 19/03 A3029 RMK AO2 SLP256 T01940033 =
  • KPBF 162053Z AUTO 01008KT 10SM CLR 20/04 A3029 RMK AO2 SLP257 T02000039 56026 =
  • KPBF 161953Z AUTO 36011G19KT 10SM CLR 20/03 A3030 RMK AO2 SLP261 T02000033 =
  • KPBF 161853Z AUTO 03012G22KT 10SM CLR 19/03 A3033 RMK AO2 SLP270 T01940033 =
  • KPBF 161753Z AUTO 01012G20KT 330V060 10SM CLR 18/04 A3037 RMK AO2 SLP283 T01830039 10189 20089 58012 =
    ________________________________________